Terminal Aerodrome Forecast
Issued by NWS

Home | Current Version | Previous Version | Text Only | Print | Product List | Glossary On
Versions: 1 2 3 4 5 6 7 8 9 10 11 12 13 14 15 16 17 18 19
240
FTUS44 KTSA 100526
TAFMLC
TAF
KMLC 100526Z 1006/1106 15003KT P6SM OVC045
     FM101500 17010G18KT P6SM BKN060
     FM110100 17011KT P6SM BKN250=

USA.gov is the U.S. government's official web portal to all federal, state and local government web resources and services.